sensor_id;sensor_type;location;lat;lon;timestamp;pressure;altitude;pressure_sealevel;temperature;humidity
57606;BME280;43430;48.204;11.556;2023-04-10T00:00:49;96685.97;;;3.29;100.00
57606;BME280;43430;48.204;11.556;2023-04-10T00:03:21;96682.56;;;3.28;100.00
57606;BME280;43430;48.204;11.556;2023-04-10T00:05:48;96683.69;;;3.26;100.00
57606;BME280;43430;48.204;11.556;2023-04-10T00:08:13;96677.97;;;3.22;100.00
57606;BME280;43430;48.204;11.556;2023-04-10T00:10:38;96676.31;;;3.13;100.00
57606;BME280;43430;48.204;11.556;2023-04-10T00:13:04;96677.59;;;3.09;100.00
57606;BME280;43430;48.204;11.556;2023-04-10T00:15:29;96678.75;;;3.06;100.00
57606;BME280;43430;48.204;11.556;2023-04-10T00:17:55;96677.91;;;2.98;100.00
57606;BME280;43430;48.204;11.556;2023-04-10T00:20:21;96682.09;;;2.91;100.00
57606;BME280;43430;48.204;11.556;2023-04-10T00:22:47;96664.97;;;2.80;100.00
57606;BME280;43430;48.204;11.556;2023-04-10T00:25:15;96665.75;;;2.72;100.00
57606;BME280;43430;48.204;11.556;2023-04-10T00:27:40;96669.44;;;2.61;100.00
57606;BME280;43430;48.204;11.556;2023-04-10T00:30:06;96663.09;;;2.64;100.00
57606;BME280;43430;48.204;11.556;2023-04-10T00:32:32;96659.84;;;2.62;100.00
57606;BME280;43430;48.204;11.556;2023-04-10T00:34:57;96656.88;;;2.57;100.00
57606;BME280;43430;48.204;11.556;2023-04-10T00:37:22;96654.44;;;2.55;100.00
57606;BME280;43430;48.204;11.556;2023-04-10T00:39:48;96655.84;;;2.50;100.00
57606;BME280;43430;48.204;11.556;2023-04-10T00:42:13;96660.03;;;2.43;100.00
57606;BME280;43430;48.204;11.556;2023-04-10T00:44:39;96650.91;;;2.38;100.00
57606;BME280;43430;48.204;11.556;2023-04-10T00:47:06;96653.66;;;2.37;100.00
57606;BME280;43430;48.204;11.556;2023-04-10T00:49:32;96653.31;;;2.32;100.00
57606;BME280;43430;48.204;11.556;2023-04-10T00:51:58;96657.50;;;2.25;100.00
57606;BME280;43430;48.204;11.556;2023-04-10T00:54:23;96650.13;;;2.20;100.00
57606;BME280;43430;48.204;11.556;2023-04-10T00:56:49;96652.44;;;2.23;100.00
57606;BME280;43430;48.204;11.556;2023-04-10T00:59:15;96647.59;;;2.28;100.00
57606;BME280;43430;48.204;11.556;2023-04-10T01:01:40;96652.81;;;2.28;100.00
57606;BME280;43430;48.204;11.556;2023-04-10T01:04:06;96646.94;;;2.26;100.00
57606;BME280;43430;48.204;11.556;2023-04-10T01:09:29;96651.50;;;2.24;100.00
57606;BME280;43430;48.204;11.556;2023-04-10T01:12:21;96653.09;;;2.25;100.00
57606;BME280;43430;48.204;11.556;2023-04-10T01:15:28;96655.72;;;2.25;100.00
57606;BME280;43430;48.204;11.556;2023-04-10T01:17:56;96655.72;;;2.25;100.00
57606;BME280;43430;48.204;11.556;2023-04-10T01:20:26;96655.03;;;2.23;100.00
57606;BME280;43430;48.204;11.556;2023-04-10T01:23:20;96657.28;;;2.18;100.00
57606;BME280;43430;48.204;11.556;2023-04-10T01:26:03;96649.97;;;2.13;100.00
57606;BME280;43430;48.204;11.556;2023-04-10T01:29:01;96659.00;;;2.09;100.00
57606;BME280;43430;48.204;11.556;2023-04-10T01:31:41;96654.44;;;2.03;100.00
57606;BME280;43430;48.204;11.556;2023-04-10T01:34:20;96652.25;;;1.99;100.00
57606;BME280;43430;48.204;11.556;2023-04-10T01:36:49;96646.72;;;1.94;100.00
57606;BME280;43430;48.204;11.556;2023-04-10T01:39:20;96642.78;;;1.89;100.00
57606;BME280;43430;48.204;11.556;2023-04-10T01:41:47;96636.09;;;1.87;100.00
57606;BME280;43430;48.204;11.556;2023-04-10T01:44:17;96635.94;;;1.88;100.00
57606;BME280;43430;48.204;11.556;2023-04-10T01:46:47;96631.03;;;1.85;100.00
57606;BME280;43430;48.204;11.556;2023-04-10T01:49:14;96635.59;;;1.83;100.00
57606;BME280;43430;48.204;11.556;2023-04-10T01:51:40;96640.50;;;1.86;100.00
57606;BME280;43430;48.204;11.556;2023-04-10T01:54:07;96639.47;;;1.79;100.00
57606;BME280;43430;48.204;11.556;2023-04-10T01:56:33;96639.75;;;1.76;100.00
57606;BME280;43430;48.204;11.556;2023-04-10T01:58:59;96627.78;;;1.83;100.00
57606;BME280;43430;48.204;11.556;2023-04-10T02:01:24;96632.81;;;1.85;100.00
57606;BME280;43430;48.204;11.556;2023-04-10T02:03:49;96631.03;;;1.85;100.00
57606;BME280;43430;48.204;11.556;2023-04-10T02:06:35;96624.22;;;1.84;100.00
57606;BME280;43430;48.204;11.556;2023-04-10T02:09:15;96631.03;;;1.85;100.00
57606;BME280;43430;48.204;11.556;2023-04-10T02:11:45;96631.88;;;1.86;100.00
57606;BME280;43430;48.204;11.556;2023-04-10T02:14:16;96628.00;;;1.90;100.00
57606;BME280;43430;48.204;11.556;2023-04-10T02:16:43;96630.59;;;1.90;100.00
57606;BME280;43430;48.204;11.556;2023-04-10T02:19:09;96634.31;;;1.87;100.00
57606;BME280;43430;48.204;11.556;2023-04-10T02:21:37;96628.31;;;1.87;100.00
57606;BME280;43430;48.204;11.556;2023-04-10T02:24:05;96628.59;;;1.84;100.00
57606;BME280;43430;48.204;11.556;2023-04-10T02:26:43;96624.50;;;1.81;100.00
57606;BME280;43430;48.204;11.556;2023-04-10T02:29:08;96628.38;;;1.77;100.00
57606;BME280;43430;48.204;11.556;2023-04-10T02:31:34;96629.34;;;1.76;100.00
57606;BME280;43430;48.204;11.556;2023-04-10T02:33:59;96625.44;;;1.72;100.00
57606;BME280;43430;48.204;11.556;2023-04-10T02:36:24;96629.94;;;1.70;100.00
57606;BME280;43430;48.204;11.556;2023-04-10T02:38:50;96627.66;;;1.67;100.00
57606;BME280;43430;48.204;11.556;2023-04-10T02:41:15;96632.16;;;1.65;100.00
57606;BME280;43430;48.204;11.556;2023-04-10T02:43:41;96625.63;;;1.61;100.00
57606;BME280;43430;48.204;11.556;2023-04-10T02:46:06;96634.13;;;1.63;100.00
57606;BME280;43430;48.204;11.556;2023-04-10T02:48:31;96637.38;;;1.65;100.00
57606;BME280;43430;48.204;11.556;2023-04-10T02:50:57;96635.91;;;1.62;100.00
57606;BME280;43430;48.204;11.556;2023-04-10T02:53:22;96629.50;;;1.57;100.00
57606;BME280;43430;48.204;11.556;2023-04-10T02:55:51;96634.72;;;1.57;100.00
57606;BME280;43430;48.204;11.556;2023-04-10T02:58:16;96635.69;;;1.56;100.00
57606;BME280;43430;48.204;11.556;2023-04-10T03:00:47;96639.75;;;1.40;100.00
57606;BME280;43430;48.204;11.556;2023-04-10T03:03:12;96636.41;;;1.30;100.00
57606;BME280;43430;48.204;11.556;2023-04-10T03:05:38;96635.16;;;1.34;100.00
57606;BME280;43430;48.204;11.556;2023-04-10T03:08:04;96637.78;;;1.34;100.00
57606;BME280;43430;48.204;11.556;2023-04-10T03:10:29;96635.06;;;1.26;100.00
57606;BME280;43430;48.204;11.556;2023-04-10T03:12:55;96633.06;;;1.20;100.00
57606;BME280;43430;48.204;11.556;2023-04-10T03:15:20;96626.91;;;1.21;100.00
57606;BME280;43430;48.204;11.556;2023-04-10T03:17:45;96620.91;;;1.21;100.00
57606;BME280;43430;48.204;11.556;2023-04-10T03:20:11;96622.38;;;1.23;100.00
57606;BME280;43430;48.204;11.556;2023-04-10T03:22:37;96623.06;;;1.25;100.00
57606;BME280;43430;48.204;11.556;2023-04-10T03:25:04;96628.25;;;1.25;100.00
57606;BME280;43430;48.204;11.556;2023-04-10T03:27:29;96628.25;;;1.25;100.00
57606;BME280;43430;48.204;11.556;2023-04-10T03:29:58;96625.78;;;1.24;100.00
57606;BME280;43430;48.204;11.556;2023-04-10T03:32:24;96628.25;;;1.25;100.00
57606;BME280;43430;48.204;11.556;2023-04-10T03:34:52;96628.78;;;1.29;100.00
57606;BME280;43430;48.204;11.556;2023-04-10T03:37:18;96628.47;;;1.32;100.00
57606;BME280;43430;48.204;11.556;2023-04-10T03:39:44;96626.31;;;1.27;100.00
57606;BME280;43430;48.204;11.556;2023-04-10T03:42:09;96641.88;;;1.27;100.00
57606;BME280;43430;48.204;11.556;2023-04-10T03:44:35;96631.50;;;1.27;100.00
57606;BME280;43430;48.204;11.556;2023-04-10T03:47:02;96628.09;;;1.27;100.00
57606;BME280;43430;48.204;11.556;2023-04-10T03:49:27;96635.88;;;1.27;100.00
57606;BME280;43430;48.204;11.556;2023-04-10T03:51:53;96630.97;;;1.24;100.00
57606;BME280;43430;48.204;11.556;2023-04-10T03:54:27;96637.72;;;1.16;100.00
57606;BME280;43430;48.204;11.556;2023-04-10T03:56:56;96632.97;;;1.12;100.00
57606;BME280;43430;48.204;11.556;2023-04-10T03:59:26;96634.25;;;1.08;100.00
57606;BME280;43430;48.204;11.556;2023-04-10T04:01:55;96635.25;;;0.97;100.00
57606;BME280;43430;48.204;11.556;2023-04-10T04:04:21;96643.19;;;0.95;100.00
57606;BME280;43430;48.204;11.556;2023-04-10T04:07:01;96641.56;;;0.94;100.00
57606;BME280;43430;48.204;11.556;2023-04-10T04:09:36;96641.56;;;0.94;100.00
57606;BME280;43430;48.204;11.556;2023-04-10T04:12:26;96645.66;;;0.97;100.00
57606;BME280;43430;48.204;11.556;2023-04-10T04:14:52;96639.16;;;0.83;100.00
57606;BME280;43430;48.204;11.556;2023-04-10T04:17:23;96646.66;;;0.86;100.00
57606;BME280;43430;48.204;11.556;2023-04-10T04:19:48;96638.97;;;0.94;100.00
57606;BME280;43430;48.204;11.556;2023-04-10T04:22:17;96640.47;;;0.97;100.00
57606;BME280;43430;48.204;11.556;2023-04-10T04:25:12;96644.84;;;0.97;100.00
57606;BME280;43430;48.204;11.556;2023-04-10T04:27:49;96637.41;;;1.02;100.00
57606;BME280;43430;48.204;11.556;2023-04-10T04:30:15;96636.31;;;1.04;100.00
57606;BME280;43430;48.204;11.556;2023-04-10T04:33:09;96647.34;;;1.06;100.00
57606;BME280;43430;48.204;11.556;2023-04-10T04:35:42;96657.09;;;1.04;100.00
57606;BME280;43430;48.204;11.556;2023-04-10T04:38:23;96655.31;;;1.05;100.00
57606;BME280;43430;48.204;11.556;2023-04-10T04:41:01;96658.94;;;1.12;100.00
57606;BME280;43430;48.204;11.556;2023-04-10T04:43:32;96658.94;;;1.12;100.00
57606;BME280;43430;48.204;11.556;2023-04-10T04:46:11;96658.28;;;1.10;100.00
57606;BME280;43430;48.204;11.556;2023-04-10T04:48:50;96668.00;;;1.08;100.00
57606;BME280;43430;48.204;11.556;2023-04-10T04:51:15;96670.97;;;1.13;100.00
57606;BME280;43430;48.204;11.556;2023-04-10T04:53:41;96662.38;;;1.12;100.00
57606;BME280;43430;48.204;11.556;2023-04-10T04:56:09;96669.72;;;1.17;100.00
57606;BME280;43430;48.204;11.556;2023-04-10T04:58:38;96664.50;;;1.17;100.00
57606;BME280;43430;48.204;11.556;2023-04-10T05:01:04;96665.19;;;1.19;100.00
57606;BME280;43430;48.204;11.556;2023-04-10T05:03:37;96660.97;;;1.18;100.00
57606;BME280;43430;48.204;11.556;2023-04-10T05:06:35;96655.63;;;1.19;100.00
57606;BME280;43430;48.204;11.556;2023-04-10T05:09:30;96667.34;;;1.24;100.00
57606;BME280;43430;48.204;11.556;2023-04-10T05:12:04;96663.22;;;1.31;100.00
57606;BME280;43430;48.204;11.556;2023-04-10T05:14:46;96665.22;;;1.37;100.00
57606;BME280;43430;48.204;11.556;2023-04-10T05:20:35;96659.94;;;1.47;100.00
57606;BME280;43430;48.204;11.556;2023-04-10T05:23:26;96654.31;;;1.51;100.00
57606;BME280;43430;48.204;11.556;2023-04-10T05:25:54;96645.78;;;1.59;100.00
57606;BME280;43430;48.204;11.556;2023-04-10T05:28:23;96646.38;;;1.71;100.00
57606;BME280;43430;48.204;11.556;2023-04-10T05:30:49;96649.19;;;1.77;100.00
57606;BME280;43430;48.204;11.556;2023-04-10T05:33:27;96649.19;;;1.77;100.00
57606;BME280;43430;48.204;11.556;2023-04-10T05:39:06;96645.38;;;1.89;100.00
57606;BME280;43430;48.204;11.556;2023-04-10T05:42:00;96652.88;;;1.93;100.00
57606;BME280;43430;48.204;11.556;2023-04-10T05:44:38;96661.84;;;1.98;100.00
57606;BME280;43430;48.204;11.556;2023-04-10T05:47:18;96651.00;;;2.03;100.00
57606;BME280;43430;48.204;11.556;2023-04-10T05:49:52;96653.81;;;2.09;100.00
57606;BME280;43430;48.204;11.556;2023-04-10T05:52:24;96655.34;;;2.20;100.00
57606;BME280;43430;48.204;11.556;2023-04-10T05:55:10;96652.13;;;2.26;100.00
57606;BME280;43430;48.204;11.556;2023-04-10T05:57:35;96653.53;;;2.38;100.00
57606;BME280;43430;48.204;11.556;2023-04-10T06:00:04;96662.84;;;2.49;100.00
57606;BME280;43430;48.204;11.556;2023-04-10T06:03:01;96665.06;;;2.70;100.00
57606;BME280;43430;48.204;11.556;2023-04-10T06:05:32;96661.94;;;2.93;100.00
57606;BME280;43430;48.204;11.556;2023-04-10T06:11:00;96653.31;;;3.92;100.00
57606;BME280;43430;48.204;11.556;2023-04-10T06:13:28;96645.44;;;4.33;100.00
57606;BME280;43430;48.204;11.556;2023-04-10T06:15:56;96644.03;;;4.78;100.00
57606;BME280;43430;48.204;11.556;2023-04-10T06:18:22;96643.59;;;5.05;100.00
57606;BME280;43430;48.204;11.556;2023-04-10T06:20:47;96641.91;;;5.20;100.00
57606;BME280;43430;48.204;11.556;2023-04-10T06:23:16;96636.53;;;5.45;100.00
57606;BME280;43430;48.204;11.556;2023-04-10T06:25:52;96629.63;;;5.52;100.00
57606;BME280;43430;48.204;11.556;2023-04-10T06:28:20;96630.63;;;5.51;100.00
57606;BME280;43430;48.204;11.556;2023-04-10T06:30:48;96621.66;;;5.45;100.00
57606;BME280;43430;48.204;11.556;2023-04-10T06:33:14;96618.91;;;5.39;100.00
57606;BME280;43430;48.204;11.556;2023-04-10T06:35:40;96620.53;;;5.40;100.00
57606;BME280;43430;48.204;11.556;2023-04-10T06:38:06;96628.50;;;5.46;100.00
57606;BME280;43430;48.204;11.556;2023-04-10T06:40:43;96618.97;;;5.54;100.00
57606;BME280;43430;48.204;11.556;2023-04-10T06:43:08;96620.50;;;5.48;100.00
57606;BME280;43430;48.204;11.556;2023-04-10T06:45:34;96614.72;;;5.53;100.00
57606;BME280;43430;48.204;11.556;2023-04-10T06:48:06;96607.69;;;5.53;100.00
57606;BME280;43430;48.204;11.556;2023-04-10T06:50:32;96613.34;;;5.42;100.00
57606;BME280;43430;48.204;11.556;2023-04-10T06:52:57;96615.00;;;5.35;100.00
57606;BME280;43430;48.204;11.556;2023-04-10T06:55:28;96610.44;;;5.37;100.00
57606;BME280;43430;48.204;11.556;2023-04-10T06:58:20;96607.22;;;5.27;100.00
57606;BME280;43430;48.204;11.556;2023-04-10T07:01:04;96611.75;;;5.33;100.00
57606;BME280;43430;48.204;11.556;2023-04-10T07:03:47;96604.91;;;5.32;100.00
57606;BME280;43430;48.204;11.556;2023-04-10T07:06:17;96607.09;;;5.43;100.00
57606;BME280;43430;48.204;11.556;2023-04-10T07:08:50;96608.16;;;5.57;100.00
57606;BME280;43430;48.204;11.556;2023-04-10T07:11:23;96604.03;;;5.62;100.00
57606;BME280;43430;48.204;11.556;2023-04-10T07:14:26;96603.03;;;5.63;100.00
57606;BME280;43430;48.204;11.556;2023-04-10T07:16:53;96598.50;;;5.80;100.00
57606;BME280;43430;48.204;11.556;2023-04-10T07:22:21;96589.41;;;5.91;100.00
57606;BME280;43430;48.204;11.556;2023-04-10T07:25:17;96593.84;;;5.90;100.00
57606;BME280;43430;48.204;11.556;2023-04-10T07:28:01;96599.50;;;6.02;100.00
57606;BME280;43430;48.204;11.556;2023-04-10T07:30:36;96593.13;;;6.20;100.00
57606;BME280;43430;48.204;11.556;2023-04-10T07:33:07;96593.94;;;6.35;100.00
57606;BME280;43430;48.204;11.556;2023-04-10T07:35:47;96594.94;;;6.34;100.00
57606;BME280;43430;48.204;11.556;2023-04-10T07:38:12;96595.22;;;6.54;100.00
57606;BME280;43430;48.204;11.556;2023-04-10T07:40:41;96585.78;;;6.74;100.00
57606;BME280;43430;48.204;11.556;2023-04-10T07:43:06;96594.47;;;6.89;100.00
57606;BME280;43430;48.204;11.556;2023-04-10T07:45:32;96591.41;;;6.86;100.00
57606;BME280;43430;48.204;11.556;2023-04-10T07:47:58;96596.44;;;6.87;100.00
57606;BME280;43430;48.204;11.556;2023-04-10T07:50:23;96590.03;;;6.90;100.00
57606;BME280;43430;48.204;11.556;2023-04-10T07:52:49;96587.81;;;7.08;100.00
57606;BME280;43430;48.204;11.556;2023-04-10T07:55:32;96585.47;;;7.13;100.00
57606;BME280;43430;48.204;11.556;2023-04-10T07:58:21;96584.38;;;7.23;100.00
57606;BME280;43430;48.204;11.556;2023-04-10T08:01:44;96586.50;;;7.55;100.00
57606;BME280;43430;48.204;11.556;2023-04-10T08:04:24;96584.00;;;7.69;100.00
57606;BME280;43430;48.204;11.556;2023-04-10T08:06:52;96579.50;;;7.63;100.00
57606;BME280;43430;48.204;11.556;2023-04-10T08:09:23;96576.00;;;7.55;100.00
57606;BME280;43430;48.204;11.556;2023-04-10T08:11:57;96575.00;;;7.56;100.00
57606;BME280;43430;48.204;11.556;2023-04-10T08:14:25;96571.69;;;7.48;100.00
57606;BME280;43430;48.204;11.556;2023-04-10T08:17:22;96572.50;;;7.70;100.00
57606;BME280;43430;48.204;11.556;2023-04-10T08:19:59;96573.31;;;7.92;100.00
57606;BME280;43430;48.204;11.556;2023-04-10T08:22:25;96570.63;;;8.13;100.00
57606;BME280;43430;48.204;11.556;2023-04-10T08:27:59;96576.09;;;8.40;100.00
57606;BME280;43430;48.204;11.556;2023-04-10T08:30:42;96572.56;;;8.32;100.00
57606;BME280;43430;48.204;11.556;2023-04-10T08:33:08;96570.00;;;8.39;100.00
57606;BME280;43430;48.204;11.556;2023-04-10T08:35:46;96571.25;;;8.43;100.00
57606;BME280;43430;48.204;11.556;2023-04-10T08:38:19;96575.34;;;8.52;100.00
57606;BME280;43430;48.204;11.556;2023-04-10T08:40:59;96563.78;;;8.82;100.00
57606;BME280;43430;48.204;11.556;2023-04-10T08:43:30;96568.50;;;9.06;100.00
57606;BME280;43430;48.204;11.556;2023-04-10T08:46:12;96562.44;;;9.06;100.00
57606;BME280;43430;48.204;11.556;2023-04-10T08:49:03;96570.94;;;9.08;100.00
57606;BME280;43430;48.204;11.556;2023-04-10T08:52:06;96574.47;;;8.80;100.00
57606;BME280;43430;48.204;11.556;2023-04-10T08:54:57;96569.91;;;8.95;100.00
57606;BME280;43430;48.204;11.556;2023-04-10T08:58:08;96564.28;;;9.05;100.00
57606;BME280;43430;48.204;11.556;2023-04-10T09:00:57;96551.75;;;9.14;100.00
57606;BME280;43430;48.204;11.556;2023-04-10T09:03:42;96554.19;;;9.22;100.00
57606;BME280;43430;48.204;11.556;2023-04-10T09:07:19;96557.47;;;9.37;100.00
57606;BME280;43430;48.204;11.556;2023-04-10T09:10:17;96546.56;;;9.47;99.70
57606;BME280;43430;48.204;11.556;2023-04-10T09:13:00;96549.00;;;9.62;97.81
57606;BME280;43430;48.204;11.556;2023-04-10T09:23:04;96540.88;;;9.70;100.00
57606;BME280;43430;48.204;11.556;2023-04-10T09:32:58;96528.34;;;9.92;87.84
57606;BME280;43430;48.204;11.556;2023-04-10T09:36:19;96507.44;;;10.04;91.09
57606;BME280;43430;48.204;11.556;2023-04-10T09:46:50;96502.03;;;10.70;80.54
57606;BME280;43430;48.204;11.556;2023-04-10T10:00:26;96488.94;;;10.95;66.07
57606;BME280;43430;48.204;11.556;2023-04-10T10:09:25;96476.25;;;11.10;63.67
57606;BME280;43430;48.204;11.556;2023-04-10T10:19:18;96457.69;;;11.24;64.02
57606;BME280;43430;48.204;11.556;2023-04-10T10:22:31;96459.16;;;11.20;59.64
57606;BME280;43430;48.204;11.556;2023-04-10T10:25:28;96454.19;;;11.05;68.41
57606;BME280;43430;48.204;11.556;2023-04-10T10:28:03;96453.72;;;11.08;69.74
57606;BME280;43430;48.204;11.556;2023-04-10T10:30:50;96439.13;;;11.12;64.92
57606;BME280;43430;48.204;11.556;2023-04-10T10:36:35;96434.84;;;11.43;59.97
57606;BME280;43430;48.204;11.556;2023-04-10T10:49:00;96425.91;;;11.62;59.14
57606;BME280;43430;48.204;11.556;2023-04-10T10:54:53;96409.50;;;11.78;57.14
57606;BME280;43430;48.204;11.556;2023-04-10T10:57:45;96404.84;;;11.80;58.96
57606;BME280;43430;48.204;11.556;2023-04-10T11:06:00;96389.97;;;11.79;53.07
57606;BME280;43430;48.204;11.556;2023-04-10T11:11:13;96381.47;;;11.77;52.31
57606;BME280;43430;48.204;11.556;2023-04-10T11:16:41;96375.16;;;11.78;54.00
57606;BME280;43430;48.204;11.556;2023-04-10T11:19:12;96374.25;;;11.91;55.21
57606;BME280;43430;48.204;11.556;2023-04-10T11:21:58;96374.25;;;12.09;54.38
57606;BME280;43430;48.204;11.556;2023-04-10T11:25:02;96359.72;;;12.19;52.89
57606;BME280;43430;48.204;11.556;2023-04-10T11:27:50;96357.63;;;12.21;53.14
57606;BME280;43430;48.204;11.556;2023-04-10T11:30:31;96357.72;;;12.32;49.29
57606;BME280;43430;48.204;11.556;2023-04-10T11:32:58;96355.69;;;12.46;43.78
57606;BME280;43430;48.204;11.556;2023-04-10T11:35:31;96351.97;;;12.35;42.41
57606;BME280;43430;48.204;11.556;2023-04-10T11:41:04;96343.56;;;12.39;47.24
57606;BME280;43430;48.204;11.556;2023-04-10T11:43:39;96339.81;;;12.46;47.09
57606;BME280;43430;48.204;11.556;2023-04-10T11:46:13;96323.41;;;12.56;46.03
57606;BME280;43430;48.204;11.556;2023-04-10T11:48:44;96324.59;;;12.60;45.47
57606;BME280;43430;48.204;11.556;2023-04-10T11:51:22;96323.66;;;12.66;45.12
57606;BME280;43430;48.204;11.556;2023-04-10T11:54:12;96321.00;;;12.66;44.43
57606;BME280;43430;48.204;11.556;2023-04-10T11:56:43;96324.38;;;12.73;43.31
57606;BME280;43430;48.204;11.556;2023-04-10T11:59:24;96314.44;;;12.57;43.19
57606;BME280;43430;48.204;11.556;2023-04-10T12:02:24;96317.47;;;12.72;44.85
57606;BME280;43430;48.204;11.556;2023-04-10T12:04:56;96313.03;;;12.85;45.51
57606;BME280;43430;48.204;11.556;2023-04-10T12:07:28;96307.50;;;12.86;44.64
57606;BME280;43430;48.204;11.556;2023-04-10T12:09:58;96307.53;;;12.98;45.38
57606;BME280;43430;48.204;11.556;2023-04-10T12:15:39;96311.78;;;12.99;43.46
57606;BME280;43430;48.204;11.556;2023-04-10T12:18:05;96306.56;;;12.80;41.32
57606;BME280;43430;48.204;11.556;2023-04-10T12:20:31;96308.38;;;12.68;43.50
57606;BME280;43430;48.204;11.556;2023-04-10T12:23:09;96316.72;;;12.83;43.07
57606;BME280;43430;48.204;11.556;2023-04-10T12:25:40;96312.63;;;12.69;42.97
57606;BME280;43430;48.204;11.556;2023-04-10T12:28:19;96306.44;;;12.75;42.68
57606;BME280;43430;48.204;11.556;2023-04-10T12:31:17;96303.44;;;12.72;41.90
57606;BME280;43430;48.204;11.556;2023-04-10T12:33:45;96301.38;;;12.86;43.47
57606;BME280;43430;48.204;11.556;2023-04-10T12:36:23;96298.53;;;12.99;41.76
57606;BME280;43430;48.204;11.556;2023-04-10T12:38:53;96296.81;;;13.16;40.78
57606;BME280;43430;48.204;11.556;2023-04-10T12:41:25;96300.84;;;12.95;40.87
57606;BME280;43430;48.204;11.556;2023-04-10T12:43:52;96296.34;;;12.96;40.99
57606;BME280;43430;48.204;11.556;2023-04-10T12:46:47;96293.84;;;13.01;40.80
57606;BME280;43430;48.204;11.556;2023-04-10T12:49:16;96287.81;;;12.94;41.29
57606;BME280;43430;48.204;11.556;2023-04-10T12:51:54;96282.97;;;12.79;40.13
57606;BME280;43430;48.204;11.556;2023-04-10T12:54:30;96272.06;;;12.99;40.53
57606;BME280;43430;48.204;11.556;2023-04-10T12:56:59;96268.41;;;13.12;39.62
57606;BME280;43430;48.204;11.556;2023-04-10T13:02:14;96267.81;;;13.21;40.50
57606;BME280;43430;48.204;11.556;2023-04-10T13:04:51;96269.00;;;13.25;40.25
57606;BME280;43430;48.204;11.556;2023-04-10T13:07:35;96267.38;;;13.24;39.63
57606;BME280;43430;48.204;11.556;2023-04-10T13:10:10;96254.47;;;13.16;40.55
57606;BME280;43430;48.204;11.556;2023-04-10T13:12:45;96270.69;;;13.20;40.90
57606;BME280;43430;48.204;11.556;2023-04-10T13:15:21;96261.97;;;13.31;39.70
57606;BME280;43430;48.204;11.556;2023-04-10T13:17:49;96249.31;;;13.33;39.40
57606;BME280;43430;48.204;11.556;2023-04-10T13:20:16;96247.44;;;13.22;38.57
57606;BME280;43430;48.204;11.556;2023-04-10T13:22:44;96246.78;;;13.26;40.21
57606;BME280;43430;48.204;11.556;2023-04-10T13:25:13;96238.13;;;13.43;41.26
57606;BME280;43430;48.204;11.556;2023-04-10T13:27:38;96239.13;;;13.42;42.04
57606;BME280;43430;48.204;11.556;2023-04-10T13:30:07;96234.09;;;13.40;42.38
57606;BME280;43430;48.204;11.556;2023-04-10T13:32:32;96227.66;;;13.36;42.19
57606;BME280;43430;48.204;11.556;2023-04-10T13:35:04;96226.69;;;13.54;42.41
57606;BME280;43430;48.204;11.556;2023-04-10T13:37:48;96223.50;;;13.81;40.20
57606;BME280;43430;48.204;11.556;2023-04-10T13:40:29;96208.22;;;13.71;40.43
57606;BME280;43430;48.204;11.556;2023-04-10T13:43:08;96213.66;;;13.64;41.09
57606;BME280;43430;48.204;11.556;2023-04-10T13:45:33;96203.53;;;13.61;41.60
57606;BME280;43430;48.204;11.556;2023-04-10T13:48:18;96195.28;;;13.46;43.20
57606;BME280;43430;48.204;11.556;2023-04-10T13:50:52;96187.88;;;13.48;42.38
57606;BME280;43430;48.204;11.556;2023-04-10T13:53:17;96187.09;;;13.47;40.97
57606;BME280;43430;48.204;11.556;2023-04-10T13:55:45;96192.84;;;13.44;41.91
57606;BME280;43430;48.204;11.556;2023-04-10T13:58:13;96199.41;;;13.42;40.91
57606;BME280;43430;48.204;11.556;2023-04-10T14:00:46;96195.41;;;13.39;42.41
57606;BME280;43430;48.204;11.556;2023-04-10T14:03:21;96191.91;;;13.50;41.96
57606;BME280;43430;48.204;11.556;2023-04-10T14:05:47;96188.09;;;13.58;42.09
57606;BME280;43430;48.204;11.556;2023-04-10T14:08:14;96186.69;;;13.67;41.63
57606;BME280;43430;48.204;11.556;2023-04-10T14:10:40;96184.44;;;13.76;41.17
57606;BME280;43430;48.204;11.556;2023-04-10T14:13:10;96179.47;;;13.80;39.83
57606;BME280;43430;48.204;11.556;2023-04-10T14:15:36;96179.78;;;13.66;41.42
57606;BME280;43430;48.204;11.556;2023-04-10T14:18:23;96172.53;;;13.62;41.49
57606;BME280;43430;48.204;11.556;2023-04-10T14:20:58;96161.84;;;13.57;41.99
57606;BME280;43430;48.204;11.556;2023-04-10T14:23:31;96156.50;;;13.68;40.99
57606;BME280;43430;48.204;11.556;2023-04-10T14:25:57;96160.19;;;13.67;42.59
57606;BME280;43430;48.204;11.556;2023-04-10T14:28:53;96152.38;;;13.61;42.67
57606;BME280;43430;48.204;11.556;2023-04-10T14:31:35;96150.56;;;13.49;43.05
57606;BME280;43430;48.204;11.556;2023-04-10T14:34:08;96151.00;;;13.58;42.50
57606;BME280;43430;48.204;11.556;2023-04-10T14:40:28;96139.59;;;13.58;41.60
57606;BME280;43430;48.204;11.556;2023-04-10T14:43:19;96144.47;;;13.49;41.82
57606;BME280;43430;48.204;11.556;2023-04-10T14:45:47;96144.38;;;13.44;41.61
57606;BME280;43430;48.204;11.556;2023-04-10T14:48:15;96148.34;;;13.58;42.25
57606;BME280;43430;48.204;11.556;2023-04-10T14:51:12;96152.97;;;13.80;41.46
57606;BME280;43430;48.204;11.556;2023-04-10T14:53:53;96145.69;;;13.58;41.45
57606;BME280;43430;48.204;11.556;2023-04-10T14:56:34;96146.28;;;13.60;41.29
57606;BME280;43430;48.204;11.556;2023-04-10T14:59:33;96137.66;;;13.53;41.92
57606;BME280;43430;48.204;11.556;2023-04-10T15:02:08;96132.25;;;13.48;42.04
57606;BME280;43430;48.204;11.556;2023-04-10T15:07:42;96128.91;;;13.52;41.44
57606;BME280;43430;48.204;11.556;2023-04-10T15:10:44;96122.84;;;13.40;41.15
57606;BME280;43430;48.204;11.556;2023-04-10T15:13:59;96120.63;;;13.49;42.78
57606;BME280;43430;48.204;11.556;2023-04-10T15:17:01;96118.88;;;13.54;41.18